sensor_id;sensor_type;location;lat;lon;timestamp;P1;durP1;ratioP1;P2;durP2;ratioP2
53115;SDS011;39010;48.088;7.954;2022-08-21T00:03:10;3.45;;;1.98;;
53115;SDS011;39010;48.088;7.954;2022-08-21T00:05:44;4.72;;;2.10;;
53115;SDS011;39010;48.088;7.954;2022-08-21T00:08:12;8.20;;;2.40;;
53115;SDS011;39010;48.088;7.954;2022-08-21T00:10:40;3.35;;;2.10;;
53115;SDS011;39010;48.088;7.954;2022-08-21T00:13:07;4.50;;;2.38;;
53115;SDS011;39010;48.088;7.954;2022-08-21T00:15:35;8.40;;;2.28;;
53115;SDS011;39010;48.088;7.954;2022-08-21T00:18:04;4.22;;;2.47;;
53115;SDS011;39010;48.088;7.954;2022-08-21T00:20:33;4.07;;;2.22;;
53115;SDS011;39010;48.088;7.954;2022-08-21T00:23:00;6.68;;;2.60;;
53115;SDS011;39010;48.088;7.954;2022-08-21T00:25:27;6.53;;;2.53;;
53115;SDS011;39010;48.088;7.954;2022-08-21T00:30:21;4.00;;;2.30;;
53115;SDS011;39010;48.088;7.954;2022-08-21T00:32:50;4.80;;;2.40;;
53115;SDS011;39010;48.088;7.954;2022-08-21T00:35:24;5.75;;;2.42;;
53115;SDS011;39010;48.088;7.954;2022-08-21T00:37:53;9.10;;;3.40;;
53115;SDS011;39010;48.088;7.954;2022-08-21T00:40:21;4.60;;;2.20;;
53115;SDS011;39010;48.088;7.954;2022-08-21T00:42:50;6.45;;;2.28;;
53115;SDS011;39010;48.088;7.954;2022-08-21T00:45:19;4.35;;;2.60;;
53115;SDS011;39010;48.088;7.954;2022-08-21T00:47:47;4.30;;;2.35;;
53115;SDS011;39010;48.088;7.954;2022-08-21T00:50:15;5.13;;;2.55;;
53115;SDS011;39010;48.088;7.954;2022-08-21T00:52:47;6.63;;;2.47;;
53115;SDS011;39010;48.088;7.954;2022-08-21T00:55:16;3.80;;;2.35;;
53115;SDS011;39010;48.088;7.954;2022-08-21T00:57:46;5.57;;;2.67;;
53115;SDS011;39010;48.088;7.954;2022-08-21T01:00:18;3.90;;;2.30;;
53115;SDS011;39010;48.088;7.954;2022-08-21T01:02:47;2.40;;;2.10;;
53115;SDS011;39010;48.088;7.954;2022-08-21T01:05:14;4.05;;;2.38;;
53115;SDS011;39010;48.088;7.954;2022-08-21T01:07:41;3.92;;;2.40;;
53115;SDS011;39010;48.088;7.954;2022-08-21T01:10:08;3.97;;;2.40;;
53115;SDS011;39010;48.088;7.954;2022-08-21T01:12:46;4.03;;;2.17;;
53115;SDS011;39010;48.088;7.954;2022-08-21T01:15:13;6.55;;;2.70;;
53115;SDS011;39010;48.088;7.954;2022-08-21T01:17:41;4.88;;;2.40;;
53115;SDS011;39010;48.088;7.954;2022-08-21T01:22:35;6.25;;;2.40;;
53115;SDS011;39010;48.088;7.954;2022-08-21T01:25:06;7.25;;;2.85;;
53115;SDS011;39010;48.088;7.954;2022-08-21T01:27:33;6.05;;;2.95;;
53115;SDS011;39010;48.088;7.954;2022-08-21T01:30:04;4.32;;;2.30;;
53115;SDS011;39010;48.088;7.954;2022-08-21T01:32:36;5.40;;;2.58;;
53115;SDS011;39010;48.088;7.954;2022-08-21T01:35:03;4.88;;;2.50;;
53115;SDS011;39010;48.088;7.954;2022-08-21T01:37:31;4.50;;;2.15;;
53115;SDS011;39010;48.088;7.954;2022-08-21T01:39:57;4.30;;;2.30;;
53115;SDS011;39010;48.088;7.954;2022-08-21T01:42:24;4.35;;;2.40;;
53115;SDS011;39010;48.088;7.954;2022-08-21T01:44:51;6.10;;;2.55;;
53115;SDS011;39010;48.088;7.954;2022-08-21T01:47:21;5.40;;;2.45;;
53115;SDS011;39010;48.088;7.954;2022-08-21T01:49:48;5.13;;;2.47;;
53115;SDS011;39010;48.088;7.954;2022-08-21T01:54:41;5.13;;;2.75;;
53115;SDS011;39010;48.088;7.954;2022-08-21T01:57:09;4.65;;;2.88;;
53115;SDS011;39010;48.088;7.954;2022-08-21T01:59:37;6.00;;;2.80;;
53115;SDS011;39010;48.088;7.954;2022-08-21T02:02:05;4.25;;;2.20;;
53115;SDS011;39010;48.088;7.954;2022-08-21T02:04:32;10.80;;;2.78;;
53115;SDS011;39010;48.088;7.954;2022-08-21T02:07:00;4.28;;;2.65;;
53115;SDS011;39010;48.088;7.954;2022-08-21T02:09:27;8.98;;;2.70;;
53115;SDS011;39010;48.088;7.954;2022-08-21T02:11:55;3.92;;;2.30;;
53115;SDS011;39010;48.088;7.954;2022-08-21T02:14:23;8.07;;;2.60;;
53115;SDS011;39010;48.088;7.954;2022-08-21T02:16:58;6.20;;;2.25;;
53115;SDS011;39010;48.088;7.954;2022-08-21T02:19:34;4.57;;;2.60;;
53115;SDS011;39010;48.088;7.954;2022-08-21T02:22:06;6.32;;;2.83;;
53115;SDS011;39010;48.088;7.954;2022-08-21T02:24:37;5.85;;;2.65;;
53115;SDS011;39010;48.088;7.954;2022-08-21T02:27:21;5.53;;;2.40;;
53115;SDS011;39010;48.088;7.954;2022-08-21T02:29:53;6.40;;;2.30;;
53115;SDS011;39010;48.088;7.954;2022-08-21T02:32:23;5.00;;;2.78;;
53115;SDS011;39010;48.088;7.954;2022-08-21T02:34:50;5.55;;;2.30;;
53115;SDS011;39010;48.088;7.954;2022-08-21T02:37:17;5.68;;;2.50;;
53115;SDS011;39010;48.088;7.954;2022-08-21T02:42:10;5.82;;;2.63;;
53115;SDS011;39010;48.088;7.954;2022-08-21T02:44:36;5.07;;;2.50;;
53115;SDS011;39010;48.088;7.954;2022-08-21T02:47:03;5.43;;;2.90;;
53115;SDS011;39010;48.088;7.954;2022-08-21T02:49:30;3.13;;;2.35;;
53115;SDS011;39010;48.088;7.954;2022-08-21T02:51:56;5.10;;;2.75;;
53115;SDS011;39010;48.088;7.954;2022-08-21T02:54:23;4.35;;;2.58;;
53115;SDS011;39010;48.088;7.954;2022-08-21T02:56:49;4.35;;;2.65;;
53115;SDS011;39010;48.088;7.954;2022-08-21T03:01:42;5.50;;;2.45;;
53115;SDS011;39010;48.088;7.954;2022-08-21T03:06:35;7.05;;;2.70;;
53115;SDS011;39010;48.088;7.954;2022-08-21T03:09:02;5.30;;;2.83;;
53115;SDS011;39010;48.088;7.954;2022-08-21T03:11:29;5.63;;;2.78;;
53115;SDS011;39010;48.088;7.954;2022-08-21T03:13:55;6.45;;;2.92;;
53115;SDS011;39010;48.088;7.954;2022-08-21T03:18:48;5.88;;;2.92;;
53115;SDS011;39010;48.088;7.954;2022-08-21T03:21:15;6.82;;;2.60;;
53115;SDS011;39010;48.088;7.954;2022-08-21T03:23:42;6.72;;;2.75;;
53115;SDS011;39010;48.088;7.954;2022-08-21T03:26:09;6.25;;;2.60;;
53115;SDS011;39010;48.088;7.954;2022-08-21T03:28:36;5.45;;;3.03;;
53115;SDS011;39010;48.088;7.954;2022-08-21T03:33:30;6.82;;;2.63;;
53115;SDS011;39010;48.088;7.954;2022-08-21T03:36:05;9.35;;;2.67;;
53115;SDS011;39010;48.088;7.954;2022-08-21T03:38:33;7.88;;;2.67;;
53115;SDS011;39010;48.088;7.954;2022-08-21T03:41:01;4.85;;;2.67;;
53115;SDS011;39010;48.088;7.954;2022-08-21T03:43:27;6.85;;;2.65;;
53115;SDS011;39010;48.088;7.954;2022-08-21T03:45:57;7.70;;;2.67;;
53115;SDS011;39010;48.088;7.954;2022-08-21T03:48:26;3.90;;;2.45;;
53115;SDS011;39010;48.088;7.954;2022-08-21T03:50:52;4.80;;;2.50;;
53115;SDS011;39010;48.088;7.954;2022-08-21T03:53:19;6.70;;;2.85;;
53115;SDS011;39010;48.088;7.954;2022-08-21T03:55:47;8.32;;;2.90;;
53115;SDS011;39010;48.088;7.954;2022-08-21T03:58:16;6.63;;;2.90;;
53115;SDS011;39010;48.088;7.954;2022-08-21T04:00:44;8.38;;;3.10;;
53115;SDS011;39010;48.088;7.954;2022-08-21T04:03:12;6.75;;;3.10;;
53115;SDS011;39010;48.088;7.954;2022-08-21T04:05:38;8.57;;;3.05;;
53115;SDS011;39010;48.088;7.954;2022-08-21T04:10:33;6.93;;;3.00;;
53115;SDS011;39010;48.088;7.954;2022-08-21T04:13:01;9.40;;;3.20;;
53115;SDS011;39010;48.088;7.954;2022-08-21T04:15:29;7.13;;;2.83;;
53115;SDS011;39010;48.088;7.954;2022-08-21T04:17:55;5.20;;;2.67;;
53115;SDS011;39010;48.088;7.954;2022-08-21T04:22:49;5.97;;;3.15;;
53115;SDS011;39010;48.088;7.954;2022-08-21T04:25:17;9.75;;;3.15;;
53115;SDS011;39010;48.088;7.954;2022-08-21T04:27:46;7.15;;;3.20;;
53115;SDS011;39010;48.088;7.954;2022-08-21T04:30:13;7.32;;;3.13;;
53115;SDS011;39010;48.088;7.954;2022-08-21T04:32:45;5.97;;;3.05;;
53115;SDS011;39010;48.088;7.954;2022-08-21T04:35:15;8.43;;;3.05;;
53115;SDS011;39010;48.088;7.954;2022-08-21T04:37:43;7.00;;;3.22;;
53115;SDS011;39010;48.088;7.954;2022-08-21T04:40:11;7.28;;;3.00;;
53115;SDS011;39010;48.088;7.954;2022-08-21T04:42:43;6.55;;;3.10;;
53115;SDS011;39010;48.088;7.954;2022-08-21T04:45:25;6.63;;;3.65;;
53115;SDS011;39010;48.088;7.954;2022-08-21T04:48:14;7.55;;;3.00;;
53115;SDS011;39010;48.088;7.954;2022-08-21T04:53:56;7.30;;;3.20;;
53115;SDS011;39010;48.088;7.954;2022-08-21T04:56:13;7.25;;;3.15;;
53115;SDS011;39010;48.088;7.954;2022-08-21T04:58:46;8.73;;;3.03;;
53115;SDS011;39010;48.088;7.954;2022-08-21T05:01:15;8.38;;;3.40;;
53115;SDS011;39010;48.088;7.954;2022-08-21T05:03:45;5.78;;;3.05;;
53115;SDS011;39010;48.088;7.954;2022-08-21T05:06:15;8.93;;;2.83;;
53115;SDS011;39010;48.088;7.954;2022-08-21T05:08:43;8.70;;;3.17;;
53115;SDS011;39010;48.088;7.954;2022-08-21T05:11:11;6.53;;;3.10;;
53115;SDS011;39010;48.088;7.954;2022-08-21T05:13:39;6.82;;;3.25;;
53115;SDS011;39010;48.088;7.954;2022-08-21T05:16:07;6.15;;;3.20;;
53115;SDS011;39010;48.088;7.954;2022-08-21T05:18:34;9.15;;;3.28;;
53115;SDS011;39010;48.088;7.954;2022-08-21T05:23:27;9.05;;;3.33;;
53115;SDS011;39010;48.088;7.954;2022-08-21T05:25:53;7.72;;;3.30;;
53115;SDS011;39010;48.088;7.954;2022-08-21T05:28:21;6.85;;;3.40;;
53115;SDS011;39010;48.088;7.954;2022-08-21T05:30:48;7.05;;;3.03;;
53115;SDS011;39010;48.088;7.954;2022-08-21T05:33:15;9.50;;;3.60;;
53115;SDS011;39010;48.088;7.954;2022-08-21T05:35:42;9.15;;;3.42;;
53115;SDS011;39010;48.088;7.954;2022-08-21T05:40:43;7.80;;;3.83;;
53115;SDS011;39010;48.088;7.954;2022-08-21T05:43:11;6.63;;;3.10;;
53115;SDS011;39010;48.088;7.954;2022-08-21T05:45:37;5.47;;;3.00;;
53115;SDS011;39010;48.088;7.954;2022-08-21T05:48:13;10.38;;;3.35;;
53115;SDS011;39010;48.088;7.954;2022-08-21T05:50:42;9.93;;;3.72;;
53115;SDS011;39010;48.088;7.954;2022-08-21T05:53:09;7.53;;;2.83;;
53115;SDS011;39010;48.088;7.954;2022-08-21T05:55:37;6.50;;;3.30;;
53115;SDS011;39010;48.088;7.954;2022-08-21T05:58:11;7.50;;;2.92;;
53115;SDS011;39010;48.088;7.954;2022-08-21T06:00:38;7.70;;;3.33;;
53115;SDS011;39010;48.088;7.954;2022-08-21T06:03:09;7.70;;;3.05;;
53115;SDS011;39010;48.088;7.954;2022-08-21T06:05:37;7.18;;;2.83;;
53115;SDS011;39010;48.088;7.954;2022-08-21T06:08:04;7.45;;;2.67;;
53115;SDS011;39010;48.088;7.954;2022-08-21T06:10:30;5.55;;;2.53;;
53115;SDS011;39010;48.088;7.954;2022-08-21T06:12:57;7.72;;;2.97;;
53115;SDS011;39010;48.088;7.954;2022-08-21T06:15:24;7.82;;;2.70;;
53115;SDS011;39010;48.088;7.954;2022-08-21T06:20:18;5.72;;;2.58;;
53115;SDS011;39010;48.088;7.954;2022-08-21T06:25:11;5.97;;;2.58;;
53115;SDS011;39010;48.088;7.954;2022-08-21T06:27:37;6.22;;;3.05;;
53115;SDS011;39010;48.088;7.954;2022-08-21T06:30:04;3.55;;;2.38;;
53115;SDS011;39010;48.088;7.954;2022-08-21T06:32:32;8.60;;;2.92;;
53115;SDS011;39010;48.088;7.954;2022-08-21T06:34:58;8.10;;;2.92;;
53115;SDS011;39010;48.088;7.954;2022-08-21T06:37:25;5.95;;;2.95;;
53115;SDS011;39010;48.088;7.954;2022-08-21T06:39:52;6.68;;;2.78;;
53115;SDS011;39010;48.088;7.954;2022-08-21T06:44:44;5.68;;;3.15;;
53115;SDS011;39010;48.088;7.954;2022-08-21T06:47:11;9.13;;;2.88;;
53115;SDS011;39010;48.088;7.954;2022-08-21T06:49:38;7.25;;;2.90;;
53115;SDS011;39010;48.088;7.954;2022-08-21T06:52:08;7.13;;;3.00;;
53115;SDS011;39010;48.088;7.954;2022-08-21T06:54:36;6.60;;;2.70;;
53115;SDS011;39010;48.088;7.954;2022-08-21T06:57:03;7.82;;;2.80;;
53115;SDS011;39010;48.088;7.954;2022-08-21T06:59:30;6.40;;;2.70;;
53115;SDS011;39010;48.088;7.954;2022-08-21T07:01:58;7.65;;;3.22;;
53115;SDS011;39010;48.088;7.954;2022-08-21T07:04:25;6.15;;;2.60;;
53115;SDS011;39010;48.088;7.954;2022-08-21T07:06:52;6.55;;;2.92;;
53115;SDS011;39010;48.088;7.954;2022-08-21T07:09:19;6.03;;;2.88;;
53115;SDS011;39010;48.088;7.954;2022-08-21T07:11:52;7.68;;;2.78;;
53115;SDS011;39010;48.088;7.954;2022-08-21T07:14:20;7.22;;;2.95;;
53115;SDS011;39010;48.088;7.954;2022-08-21T07:16:48;5.13;;;2.53;;
53115;SDS011;39010;48.088;7.954;2022-08-21T07:19:15;4.43;;;2.65;;
53115;SDS011;39010;48.088;7.954;2022-08-21T07:21:42;6.72;;;2.75;;
53115;SDS011;39010;48.088;7.954;2022-08-21T07:24:08;4.78;;;2.60;;
53115;SDS011;39010;48.088;7.954;2022-08-21T07:26:35;5.93;;;2.75;;
53115;SDS011;39010;48.088;7.954;2022-08-21T07:29:02;5.85;;;2.70;;
53115;SDS011;39010;48.088;7.954;2022-08-21T07:31:29;4.88;;;2.75;;
53115;SDS011;39010;48.088;7.954;2022-08-21T07:33:56;9.88;;;3.05;;
53115;SDS011;39010;48.088;7.954;2022-08-21T07:36:23;7.10;;;2.83;;
53115;SDS011;39010;48.088;7.954;2022-08-21T07:38:49;7.70;;;2.67;;
53115;SDS011;39010;48.088;7.954;2022-08-21T07:41:19;5.63;;;2.60;;
53115;SDS011;39010;48.088;7.954;2022-08-21T07:43:48;7.10;;;2.92;;
53115;SDS011;39010;48.088;7.954;2022-08-21T07:46:18;8.63;;;3.22;;
53115;SDS011;39010;48.088;7.954;2022-08-21T07:48:45;6.47;;;2.65;;
53115;SDS011;39010;48.088;7.954;2022-08-21T07:51:12;7.32;;;2.80;;
53115;SDS011;39010;48.088;7.954;2022-08-21T07:53:40;7.30;;;2.67;;
53115;SDS011;39010;48.088;7.954;2022-08-21T07:56:07;6.32;;;3.05;;
53115;SDS011;39010;48.088;7.954;2022-08-21T07:58:34;6.35;;;2.72;;
53115;SDS011;39010;48.088;7.954;2022-08-21T08:01:01;8.40;;;3.15;;
53115;SDS011;39010;48.088;7.954;2022-08-21T08:03:28;6.75;;;2.83;;
53115;SDS011;39010;48.088;7.954;2022-08-21T08:05:55;6.22;;;2.97;;
53115;SDS011;39010;48.088;7.954;2022-08-21T08:08:22;4.90;;;2.78;;
53115;SDS011;39010;48.088;7.954;2022-08-21T08:10:49;7.57;;;3.22;;
53115;SDS011;39010;48.088;7.954;2022-08-21T08:13:16;6.85;;;2.65;;
53115;SDS011;39010;48.088;7.954;2022-08-21T08:15:43;5.95;;;2.63;;
53115;SDS011;39010;48.088;7.954;2022-08-21T08:18:10;9.00;;;3.20;;
53115;SDS011;39010;48.088;7.954;2022-08-21T08:20:36;7.30;;;2.85;;
53115;SDS011;39010;48.088;7.954;2022-08-21T08:23:03;6.72;;;2.65;;
53115;SDS011;39010;48.088;7.954;2022-08-21T08:25:29;5.75;;;2.58;;
53115;SDS011;39010;48.088;7.954;2022-08-21T08:28:02;6.88;;;2.85;;
53115;SDS011;39010;48.088;7.954;2022-08-21T08:30:43;5.60;;;2.70;;
53115;SDS011;39010;48.088;7.954;2022-08-21T08:33:10;9.88;;;3.22;;
53115;SDS011;39010;48.088;7.954;2022-08-21T08:35:37;7.32;;;2.42;;
53115;SDS011;39010;48.088;7.954;2022-08-21T08:38:04;6.88;;;2.80;;
53115;SDS011;39010;48.088;7.954;2022-08-21T08:43:08;5.80;;;2.60;;
53115;SDS011;39010;48.088;7.954;2022-08-21T08:45:40;9.40;;;2.67;;
53115;SDS011;39010;48.088;7.954;2022-08-21T08:48:13;6.32;;;2.70;;
53115;SDS011;39010;48.088;7.954;2022-08-21T08:50:49;6.55;;;2.40;;
53115;SDS011;39010;48.088;7.954;2022-08-21T08:53:25;7.57;;;2.65;;
53115;SDS011;39010;48.088;7.954;2022-08-21T08:56:00;7.53;;;2.53;;
53115;SDS011;39010;48.088;7.954;2022-08-21T08:58:29;5.63;;;2.70;;
53115;SDS011;39010;48.088;7.954;2022-08-21T09:01:04;6.07;;;2.45;;
53115;SDS011;39010;48.088;7.954;2022-08-21T09:03:36;7.28;;;3.00;;
53115;SDS011;39010;48.088;7.954;2022-08-21T09:06:11;8.27;;;2.58;;
53115;SDS011;39010;48.088;7.954;2022-08-21T09:09:14;6.03;;;2.60;;
53115;SDS011;39010;48.088;7.954;2022-08-21T09:14:58;6.32;;;2.95;;
53115;SDS011;39010;48.088;7.954;2022-08-21T09:17:46;5.57;;;2.40;;
53115;SDS011;39010;48.088;7.954;2022-08-21T09:23:24;7.78;;;3.03;;
53115;SDS011;39010;48.088;7.954;2022-08-21T09:28:38;5.47;;;2.60;;
53115;SDS011;39010;48.088;7.954;2022-08-21T09:31:08;7.80;;;2.97;;
53115;SDS011;39010;48.088;7.954;2022-08-21T09:33:38;5.72;;;2.30;;
53115;SDS011;39010;48.088;7.954;2022-08-21T09:36:04;9.38;;;2.60;;
53115;SDS011;39010;48.088;7.954;2022-08-21T09:38:32;3.53;;;2.20;;
53115;SDS011;39010;48.088;7.954;2022-08-21T09:41:02;7.05;;;2.70;;
53115;SDS011;39010;48.088;7.954;2022-08-21T09:43:31;8.82;;;2.72;;
53115;SDS011;39010;48.088;7.954;2022-08-21T09:46:19;5.80;;;2.13;;
53115;SDS011;39010;48.088;7.954;2022-08-21T09:48:49;6.47;;;2.80;;
53115;SDS011;39010;48.088;7.954;2022-08-21T09:53:51;6.13;;;2.92;;
53115;SDS011;39010;48.088;7.954;2022-08-21T09:56:26;6.90;;;2.53;;
53115;SDS011;39010;48.088;7.954;2022-08-21T09:59:16;7.78;;;2.80;;
53115;SDS011;39010;48.088;7.954;2022-08-21T10:04:52;8.60;;;2.92;;
53115;SDS011;39010;48.088;7.954;2022-08-21T10:07:23;6.93;;;2.47;;
53115;SDS011;39010;48.088;7.954;2022-08-21T10:10:02;9.48;;;2.85;;
53115;SDS011;39010;48.088;7.954;2022-08-21T10:18:45;7.40;;;2.95;;
53115;SDS011;39010;48.088;7.954;2022-08-21T10:24:19;8.38;;;2.90;;
53115;SDS011;39010;48.088;7.954;2022-08-21T10:30:24;5.95;;;2.33;;
53115;SDS011;39010;48.088;7.954;2022-08-21T10:35:29;4.15;;;2.13;;
53115;SDS011;39010;48.088;7.954;2022-08-21T10:44:17;5.75;;;2.30;;
53115;SDS011;39010;48.088;7.954;2022-08-21T10:47:04;6.38;;;2.67;;
53115;SDS011;39010;48.088;7.954;2022-08-21T10:49:39;5.30;;;2.30;;
53115;SDS011;39010;48.088;7.954;2022-08-21T10:54:59;9.90;;;2.17;;
53115;SDS011;39010;48.088;7.954;2022-08-21T10:57:34;6.45;;;2.20;;
53115;SDS011;39010;48.088;7.954;2022-08-21T11:00:10;4.53;;;1.80;;
53115;SDS011;39010;48.088;7.954;2022-08-21T11:02:42;4.88;;;2.15;;
53115;SDS011;39010;48.088;7.954;2022-08-21T11:05:27;6.05;;;2.20;;
53115;SDS011;39010;48.088;7.954;2022-08-21T11:08:09;3.40;;;1.70;;
53115;SDS011;39010;48.088;7.954;2022-08-21T11:10:42;4.70;;;1.80;;
53115;SDS011;39010;48.088;7.954;2022-08-21T11:13:59;7.18;;;2.13;;
53115;SDS011;39010;48.088;7.954;2022-08-21T11:16:26;2.95;;;1.70;;
53115;SDS011;39010;48.088;7.954;2022-08-21T11:19:04;5.38;;;1.70;;
53115;SDS011;39010;48.088;7.954;2022-08-21T11:21:52;5.72;;;1.77;;
53115;SDS011;39010;48.088;7.954;2022-08-21T11:24:30;4.63;;;1.83;;
53115;SDS011;39010;48.088;7.954;2022-08-21T11:27:11;2.72;;;1.70;;
53115;SDS011;39010;48.088;7.954;2022-08-21T11:29:54;3.78;;;1.88;;
53115;SDS011;39010;48.088;7.954;2022-08-21T11:35:43;3.53;;;1.60;;
53115;SDS011;39010;48.088;7.954;2022-08-21T11:41:13;3.67;;;1.70;;
53115;SDS011;39010;48.088;7.954;2022-08-21T12:00:00;7.13;;;2.03;;
53115;SDS011;39010;48.088;7.954;2022-08-21T12:02:48;4.88;;;1.60;;
53115;SDS011;39010;48.088;7.954;2022-08-21T12:08:00;3.35;;;2.00;;
53115;SDS011;39010;48.088;7.954;2022-08-21T12:10:58;3.15;;;1.52;;
53115;SDS011;39010;48.088;7.954;2022-08-21T12:13:34;3.42;;;1.60;;
53115;SDS011;39010;48.088;7.954;2022-08-21T12:16:12;4.35;;;1.70;;
53115;SDS011;39010;48.088;7.954;2022-08-21T12:18:41;4.35;;;1.70;;
53115;SDS011;39010;48.088;7.954;2022-08-21T12:21:27;3.85;;;1.88;;
53115;SDS011;39010;48.088;7.954;2022-08-21T12:26:54;4.88;;;1.67;;
53115;SDS011;39010;48.088;7.954;2022-08-21T12:29:32;5.57;;;1.60;;
53115;SDS011;39010;48.088;7.954;2022-08-21T12:39:54;3.35;;;1.55;;
53115;SDS011;39010;48.088;7.954;2022-08-21T12:42:31;3.92;;;1.60;;
53115;SDS011;39010;48.088;7.954;2022-08-21T12:45:00;5.15;;;1.85;;
53115;SDS011;39010;48.088;7.954;2022-08-21T12:47:32;3.28;;;1.58;;
53115;SDS011;39010;48.088;7.954;2022-08-21T12:52:30;3.95;;;1.70;;
53115;SDS011;39010;48.088;7.954;2022-08-21T12:55:04;4.35;;;1.70;;
53115;SDS011;39010;48.088;7.954;2022-08-21T12:57:31;3.65;;;1.60;;
53115;SDS011;39010;48.088;7.954;2022-08-21T12:59:59;5.05;;;2.17;;
53115;SDS011;39010;48.088;7.954;2022-08-21T13:02:31;3.30;;;1.58;;
53115;SDS011;39010;48.088;7.954;2022-08-21T13:05:02;5.30;;;1.70;;
53115;SDS011;39010;48.088;7.954;2022-08-21T13:07:32;4.25;;;1.98;;
53115;SDS011;39010;48.088;7.954;2022-08-21T13:10:03;5.05;;;1.75;;
53115;SDS011;39010;48.088;7.954;2022-08-21T13:12:32;3.67;;;1.67;;
53115;SDS011;39010;48.088;7.954;2022-08-21T13:15:03;4.63;;;1.60;;
53115;SDS011;39010;48.088;7.954;2022-08-21T13:17:37;4.10;;;1.70;;
53115;SDS011;39010;48.088;7.954;2022-08-21T13:20:27;3.35;;;1.58;;
53115;SDS011;39010;48.088;7.954;2022-08-21T13:23:01;6.50;;;2.10;;
53115;SDS011;39010;48.088;7.954;2022-08-21T13:25:30;4.32;;;1.75;;
53115;SDS011;39010;48.088;7.954;2022-08-21T13:28:10;3.90;;;1.77;;
53115;SDS011;39010;48.088;7.954;2022-08-21T13:30:40;3.63;;;1.60;;
53115;SDS011;39010;48.088;7.954;2022-08-21T13:33:09;4.93;;;1.80;;
53115;SDS011;39010;48.088;7.954;2022-08-21T13:38:30;3.00;;;1.60;;
53115;SDS011;39010;48.088;7.954;2022-08-21T13:41:02;4.28;;;1.63;;
53115;SDS011;39010;48.088;7.954;2022-08-21T13:43:33;4.68;;;1.75;;
53115;SDS011;39010;48.088;7.954;2022-08-21T13:46:02;4.15;;;1.77;;
53115;SDS011;39010;48.088;7.954;2022-08-21T13:48:35;4.65;;;1.70;;
53115;SDS011;39010;48.088;7.954;2022-08-21T13:51:03;7.20;;;1.92;;
53115;SDS011;39010;48.088;7.954;2022-08-21T13:53:32;3.92;;;1.40;;
53115;SDS011;39010;48.088;7.954;2022-08-21T13:55:59;4.35;;;1.80;;
53115;SDS011;39010;48.088;7.954;2022-08-21T13:58:32;4.32;;;1.92;;
53115;SDS011;39010;48.088;7.954;2022-08-21T14:01:18;3.35;;;1.60;;
53115;SDS011;39010;48.088;7.954;2022-08-21T14:03:46;3.30;;;1.60;;
53115;SDS011;39010;48.088;7.954;2022-08-21T14:06:16;2.83;;;1.38;;
53115;SDS011;39010;48.088;7.954;2022-08-21T14:08:51;5.70;;;1.90;;
53115;SDS011;39010;48.088;7.954;2022-08-21T14:11:19;4.78;;;1.70;;
53115;SDS011;39010;48.088;7.954;2022-08-21T14:13:57;4.55;;;1.70;;
53115;SDS011;39010;48.088;7.954;2022-08-21T14:16:40;3.47;;;1.48;;
53115;SDS011;39010;48.088;7.954;2022-08-21T14:19:18;4.18;;;1.63;;
53115;SDS011;39010;48.088;7.954;2022-08-21T14:21:49;5.00;;;1.80;;
53115;SDS011;39010;48.088;7.954;2022-08-21T14:26:54;4.65;;;1.90;;
53115;SDS011;39010;48.088;7.954;2022-08-21T14:29:25;4.25;;;1.48;;
53115;SDS011;39010;48.088;7.954;2022-08-21T14:32:00;6.15;;;1.80;;
53115;SDS011;39010;48.088;7.954;2022-08-21T14:34:49;3.58;;;1.80;;
53115;SDS011;39010;48.088;7.954;2022-08-21T14:37:16;6.32;;;1.60;;
53115;SDS011;39010;48.088;7.954;2022-08-21T14:39:42;4.53;;;1.80;;
53115;SDS011;39010;48.088;7.954;2022-08-21T14:42:10;4.93;;;1.98;;
53115;SDS011;39010;48.088;7.954;2022-08-21T14:44:38;3.92;;;1.77;;
53115;SDS011;39010;48.088;7.954;2022-08-21T14:47:05;7.80;;;1.70;;
53115;SDS011;39010;48.088;7.954;2022-08-21T14:49:31;5.40;;;1.65;;
53115;SDS011;39010;48.088;7.954;2022-08-21T14:51:58;4.05;;;1.70;;
53115;SDS011;39010;48.088;7.954;2022-08-21T14:54:25;5.05;;;1.90;;
53115;SDS011;39010;48.088;7.954;2022-08-21T14:56:57;4.90;;;1.73;;
53115;SDS011;39010;48.088;7.954;2022-08-21T14:59:26;4.45;;;1.83;;
53115;SDS011;39010;48.088;7.954;2022-08-21T15:01:53;3.40;;;1.70;;
53115;SDS011;39010;48.088;7.954;2022-08-21T15:04:20;5.90;;;1.55;;
53115;SDS011;39010;48.088;7.954;2022-08-21T15:06:46;4.25;;;1.92;;
53115;SDS011;39010;48.088;7.954;2022-08-21T15:09:13;3.33;;;1.63;;
53115;SDS011;39010;48.088;7.954;2022-08-21T15:11:39;3.03;;;1.70;;
53115;SDS011;39010;48.088;7.954;2022-08-21T15:14:18;3.55;;;1.65;;
53115;SDS011;39010;48.088;7.954;2022-08-21T15:16:49;4.82;;;1.75;;
53115;SDS011;39010;48.088;7.954;2022-08-21T15:19:17;6.70;;;1.75;;
53115;SDS011;39010;48.088;7.954;2022-08-21T15:21:43;4.72;;;2.03;;
53115;SDS011;39010;48.088;7.954;2022-08-21T15:24:10;4.35;;;1.77;;
53115;SDS011;39010;48.088;7.954;2022-08-21T15:26:36;6.10;;;2.30;;
53115;SDS011;39010;48.088;7.954;2022-08-21T15:29:04;5.90;;;1.90;;
53115;SDS011;39010;48.088;7.954;2022-08-21T15:31:33;3.53;;;1.55;;
53115;SDS011;39010;48.088;7.954;2022-08-21T15:34:01;2.95;;;1.60;;
53115;SDS011;39010;48.088;7.954;2022-08-21T15:36:27;5.07;;;2.75;;
53115;SDS011;39010;48.088;7.954;2022-08-21T15:38:54;4.22;;;2.03;;
53115;SDS011;39010;48.088;7.954;2022-08-21T15:41:20;5.00;;;1.73;;
53115;SDS011;39010;48.088;7.954;2022-08-21T15:43:48;4.47;;;2.00;;
53115;SDS011;39010;48.088;7.954;2022-08-21T15:46:18;3.90;;;1.50;;
53115;SDS011;39010;48.088;7.954;2022-08-21T15:48:46;3.08;;;1.70;;
53115;SDS011;39010;48.088;7.954;2022-08-21T15:51:13;5.55;;;2.05;;
53115;SDS011;39010;48.088;7.954;2022-08-21T15:53:42;5.00;;;2.00;;
53115;SDS011;39010;48.088;7.954;2022-08-21T15:56:11;5.18;;;2.30;;
53115;SDS011;39010;48.088;7.954;2022-08-21T15:58:46;2.85;;;1.70;;
53115;SDS011;39010;48.088;7.954;2022-08-21T16:01:13;5.40;;;1.85;;
53115;SDS011;39010;48.088;7.954;2022-08-21T16:03:39;4.05;;;1.88;;
53115;SDS011;39010;48.088;7.954;2022-08-21T16:06:08;3.10;;;1.65;;
53115;SDS011;39010;48.088;7.954;2022-08-21T16:08:34;2.42;;;1.42;;
53115;SDS011;39010;48.088;7.954;2022-08-21T16:11:01;6.55;;;1.80;;
53115;SDS011;39010;48.088;7.954;2022-08-21T16:13:29;4.30;;;2.08;;
53115;SDS011;39010;48.088;7.954;2022-08-21T16:16:02;6.22;;;1.80;;
53115;SDS011;39010;48.088;7.954;2022-08-21T16:18:29;3.40;;;1.48;;
53115;SDS011;39010;48.088;7.954;2022-08-21T16:20:55;4.75;;;1.85;;
53115;SDS011;39010;48.088;7.954;2022-08-21T16:23:22;7.50;;;2.13;;
53115;SDS011;39010;48.088;7.954;2022-08-21T16:25:48;5.78;;;1.70;;
53115;SDS011;39010;48.088;7.954;2022-08-21T16:28:16;5.25;;;1.80;;
53115;SDS011;39010;48.088;7.954;2022-08-21T16:30:46;5.60;;;2.03;;
53115;SDS011;39010;48.088;7.954;2022-08-21T16:36:14;7.43;;;1.90;;
53115;SDS011;39010;48.088;7.954;2022-08-21T16:38:41;6.35;;;2.00;;
53115;SDS011;39010;48.088;7.954;2022-08-21T16:41:10;3.65;;;1.60;;
53115;SDS011;39010;48.088;7.954;2022-08-21T16:43:39;4.00;;;1.95;;
53115;SDS011;39010;48.088;7.954;2022-08-21T16:46:08;3.35;;;1.50;;
53115;SDS011;39010;48.088;7.954;2022-08-21T16:48:37;3.28;;;1.70;;
53115;SDS011;39010;48.088;7.954;2022-08-21T16:51:05;3.55;;;1.73;;
53115;SDS011;39010;48.088;7.954;2022-08-21T16:53:32;4.85;;;1.70;;
53115;SDS011;39010;48.088;7.954;2022-08-21T16:55:59;4.68;;;1.80;;
53115;SDS011;39010;48.088;7.954;2022-08-21T16:58:27;3.13;;;1.70;;
53115;SDS011;39010;48.088;7.954;2022-08-21T17:00:56;5.10;;;1.92;;
53115;SDS011;39010;48.088;7.954;2022-08-21T17:03:37;2.85;;;1.60;;
53115;SDS011;39010;48.088;7.954;2022-08-21T17:06:06;5.75;;;1.60;;
53115;SDS011;39010;48.088;7.954;2022-08-21T17:08:34;7.55;;;1.98;;
53115;SDS011;39010;48.088;7.954;2022-08-21T17:11:01;4.50;;;2.10;;
53115;SDS011;39010;48.088;7.954;2022-08-21T17:13:30;3.00;;;1.80;;
53115;SDS011;39010;48.088;7.954;2022-08-21T17:15:57;4.70;;;1.60;;